sensor_id;sensor_type;location;lat;lon;timestamp;temperature;humidity
15638;DHT22;26604;53.596;10.042;2023-06-22T00:02:18;17.20;99.90
15638;DHT22;26604;53.596;10.042;2023-06-22T00:04:45;17.10;99.90
15638;DHT22;26604;53.596;10.042;2023-06-22T00:07:12;17.10;99.90
15638;DHT22;26604;53.596;10.042;2023-06-22T00:09:38;17.10;99.90
15638;DHT22;26604;53.596;10.042;2023-06-22T00:12:08;17.10;99.90
15638;DHT22;26604;53.596;10.042;2023-06-22T00:14:34;17.00;99.90
15638;DHT22;26604;53.596;10.042;2023-06-22T00:17:02;17.00;99.90
15638;DHT22;26604;53.596;10.042;2023-06-22T00:19:29;17.00;99.90
15638;DHT22;26604;53.596;10.042;2023-06-22T00:21:55;17.00;99.90
15638;DHT22;26604;53.596;10.042;2023-06-22T00:24:25;17.00;99.90
15638;DHT22;26604;53.596;10.042;2023-06-22T00:26:52;17.00;99.90
15638;DHT22;26604;53.596;10.042;2023-06-22T00:29:20;17.00;99.90
15638;DHT22;26604;53.596;10.042;2023-06-22T00:31:47;16.90;99.90
15638;DHT22;26604;53.596;10.042;2023-06-22T00:34:14;16.90;99.90
15638;DHT22;26604;53.596;10.042;2023-06-22T00:36:42;16.90;99.90
15638;DHT22;26604;53.596;10.042;2023-06-22T00:39:09;16.90;99.90
15638;DHT22;26604;53.596;10.042;2023-06-22T00:41:36;16.90;99.90
15638;DHT22;26604;53.596;10.042;2023-06-22T00:44:03;17.00;99.90
15638;DHT22;26604;53.596;10.042;2023-06-22T00:46:31;17.00;99.90
15638;DHT22;26604;53.596;10.042;2023-06-22T00:48:58;17.10;99.90
15638;DHT22;26604;53.596;10.042;2023-06-22T00:51:26;17.10;99.90
15638;DHT22;26604;53.596;10.042;2023-06-22T00:53:53;17.10;99.90
15638;DHT22;26604;53.596;10.042;2023-06-22T00:56:20;17.20;99.90
15638;DHT22;26604;53.596;10.042;2023-06-22T00:58:50;17.20;99.90
15638;DHT22;26604;53.596;10.042;2023-06-22T01:01:19;17.30;99.90
15638;DHT22;26604;53.596;10.042;2023-06-22T01:03:50;17.30;99.90
15638;DHT22;26604;53.596;10.042;2023-06-22T01:06:41;17.30;99.90
15638;DHT22;26604;53.596;10.042;2023-06-22T01:09:15;17.30;99.90
15638;DHT22;26604;53.596;10.042;2023-06-22T01:11:48;17.30;99.90
15638;DHT22;26604;53.596;10.042;2023-06-22T01:14:22;17.30;99.90
15638;DHT22;26604;53.596;10.042;2023-06-22T01:16:51;17.30;99.90
15638;DHT22;26604;53.596;10.042;2023-06-22T01:19:34;17.30;99.90
15638;DHT22;26604;53.596;10.042;2023-06-22T01:22:02;17.30;99.90
15638;DHT22;26604;53.596;10.042;2023-06-22T01:24:33;17.20;99.90
15638;DHT22;26604;53.596;10.042;2023-06-22T01:27:13;17.30;99.90
15638;DHT22;26604;53.596;10.042;2023-06-22T01:29:51;17.40;99.90
15638;DHT22;26604;53.596;10.042;2023-06-22T01:32:19;17.50;99.90
15638;DHT22;26604;53.596;10.042;2023-06-22T01:34:47;17.50;99.90
15638;DHT22;26604;53.596;10.042;2023-06-22T01:37:15;17.60;99.90
15638;DHT22;26604;53.596;10.042;2023-06-22T01:39:42;17.60;99.90
15638;DHT22;26604;53.596;10.042;2023-06-22T01:42:10;17.60;99.90
15638;DHT22;26604;53.596;10.042;2023-06-22T01:44:37;17.60;99.90
15638;DHT22;26604;53.596;10.042;2023-06-22T01:47:07;17.50;99.90
15638;DHT22;26604;53.596;10.042;2023-06-22T01:49:34;17.40;99.90
15638;DHT22;26604;53.596;10.042;2023-06-22T01:52:01;17.40;99.90
15638;DHT22;26604;53.596;10.042;2023-06-22T01:54:29;17.30;99.90
15638;DHT22;26604;53.596;10.042;2023-06-22T01:56:57;17.30;99.90
15638;DHT22;26604;53.596;10.042;2023-06-22T01:59:27;17.30;99.90
15638;DHT22;26604;53.596;10.042;2023-06-22T02:02:02;17.40;99.90
15638;DHT22;26604;53.596;10.042;2023-06-22T02:04:35;17.40;99.90
15638;DHT22;26604;53.596;10.042;2023-06-22T02:07:07;17.30;99.90
15638;DHT22;26604;53.596;10.042;2023-06-22T02:09:37;17.30;99.90
15638;DHT22;26604;53.596;10.042;2023-06-22T02:12:07;17.30;99.90
15638;DHT22;26604;53.596;10.042;2023-06-22T02:14:35;17.30;99.90
15638;DHT22;26604;53.596;10.042;2023-06-22T02:17:02;17.20;99.90
15638;DHT22;26604;53.596;10.042;2023-06-22T02:19:36;17.20;99.90
15638;DHT22;26604;53.596;10.042;2023-06-22T02:22:03;17.10;99.90
15638;DHT22;26604;53.596;10.042;2023-06-22T02:24:30;17.00;99.90
15638;DHT22;26604;53.596;10.042;2023-06-22T02:26:59;17.10;99.90
15638;DHT22;26604;53.596;10.042;2023-06-22T02:29:26;17.10;99.90
15638;DHT22;26604;53.596;10.042;2023-06-22T02:31:53;17.10;99.90
15638;DHT22;26604;53.596;10.042;2023-06-22T02:34:21;17.10;99.90
15638;DHT22;26604;53.596;10.042;2023-06-22T02:36:49;17.10;99.90
15638;DHT22;26604;53.596;10.042;2023-06-22T02:39:19;17.10;99.90
15638;DHT22;26604;53.596;10.042;2023-06-22T02:41:47;17.10;99.90
15638;DHT22;26604;53.596;10.042;2023-06-22T02:44:14;17.10;99.90
15638;DHT22;26604;53.596;10.042;2023-06-22T02:46:41;17.10;99.90
15638;DHT22;26604;53.596;10.042;2023-06-22T02:49:08;17.00;99.90
15638;DHT22;26604;53.596;10.042;2023-06-22T02:51:35;17.00;99.90
15638;DHT22;26604;53.596;10.042;2023-06-22T02:54:04;17.00;99.90
15638;DHT22;26604;53.596;10.042;2023-06-22T02:56:30;17.00;99.90
15638;DHT22;26604;53.596;10.042;2023-06-22T02:58:57;16.90;99.90
15638;DHT22;26604;53.596;10.042;2023-06-22T03:01:26;16.90;99.90
15638;DHT22;26604;53.596;10.042;2023-06-22T03:03:53;16.80;99.90
15638;DHT22;26604;53.596;10.042;2023-06-22T03:06:20;16.70;99.90
15638;DHT22;26604;53.596;10.042;2023-06-22T03:08:49;16.70;99.90
15638;DHT22;26604;53.596;10.042;2023-06-22T03:11:17;16.70;99.90
15638;DHT22;26604;53.596;10.042;2023-06-22T03:13:44;16.60;99.90
15638;DHT22;26604;53.596;10.042;2023-06-22T03:16:12;16.60;99.90
15638;DHT22;26604;53.596;10.042;2023-06-22T03:18:38;16.60;99.90
15638;DHT22;26604;53.596;10.042;2023-06-22T03:21:05;16.60;99.90
15638;DHT22;26604;53.596;10.042;2023-06-22T03:23:32;16.60;99.90
15638;DHT22;26604;53.596;10.042;2023-06-22T03:25:59;16.70;99.90
15638;DHT22;26604;53.596;10.042;2023-06-22T03:28:27;16.70;99.90
15638;DHT22;26604;53.596;10.042;2023-06-22T03:30:56;16.80;99.90
15638;DHT22;26604;53.596;10.042;2023-06-22T03:33:23;16.70;99.90
15638;DHT22;26604;53.596;10.042;2023-06-22T03:35:50;16.80;99.90
15638;DHT22;26604;53.596;10.042;2023-06-22T03:38:17;16.80;99.90
15638;DHT22;26604;53.596;10.042;2023-06-22T03:40:44;16.80;99.90
15638;DHT22;26604;53.596;10.042;2023-06-22T03:43:11;16.90;99.90
15638;DHT22;26604;53.596;10.042;2023-06-22T03:45:39;17.00;99.90
15638;DHT22;26604;53.596;10.042;2023-06-22T03:48:06;17.00;99.90
15638;DHT22;26604;53.596;10.042;2023-06-22T03:50:33;17.20;99.90
15638;DHT22;26604;53.596;10.042;2023-06-22T03:53:00;17.30;99.90
15638;DHT22;26604;53.596;10.042;2023-06-22T03:55:27;17.30;99.90
15638;DHT22;26604;53.596;10.042;2023-06-22T03:57:54;17.50;99.90
15638;DHT22;26604;53.596;10.042;2023-06-22T04:00:22;17.60;99.90
15638;DHT22;26604;53.596;10.042;2023-06-22T04:02:51;17.70;99.90
15638;DHT22;26604;53.596;10.042;2023-06-22T04:05:18;17.80;99.90
15638;DHT22;26604;53.596;10.042;2023-06-22T04:07:44;17.90;99.90
15638;DHT22;26604;53.596;10.042;2023-06-22T04:10:11;18.00;99.90
15638;DHT22;26604;53.596;10.042;2023-06-22T04:12:38;18.10;99.90
15638;DHT22;26604;53.596;10.042;2023-06-22T04:15:06;18.10;99.90
15638;DHT22;26604;53.596;10.042;2023-06-22T04:17:33;18.20;99.90
15638;DHT22;26604;53.596;10.042;2023-06-22T04:20:01;18.20;99.90
15638;DHT22;26604;53.596;10.042;2023-06-22T04:22:30;18.30;99.90
15638;DHT22;26604;53.596;10.042;2023-06-22T04:24:57;18.30;99.90
15638;DHT22;26604;53.596;10.042;2023-06-22T04:27:24;18.40;99.90
15638;DHT22;26604;53.596;10.042;2023-06-22T04:29:51;18.50;99.90
15638;DHT22;26604;53.596;10.042;2023-06-22T04:32:18;18.60;99.90
15638;DHT22;26604;53.596;10.042;2023-06-22T04:34:45;18.70;99.90
15638;DHT22;26604;53.596;10.042;2023-06-22T04:37:13;18.80;99.90
15638;DHT22;26604;53.596;10.042;2023-06-22T04:39:41;18.90;99.90
15638;DHT22;26604;53.596;10.042;2023-06-22T04:42:08;19.00;99.90
15638;DHT22;26604;53.596;10.042;2023-06-22T04:44:35;19.20;99.90
15638;DHT22;26604;53.596;10.042;2023-06-22T04:47:02;19.30;99.90
15638;DHT22;26604;53.596;10.042;2023-06-22T04:49:34;19.40;99.90
15638;DHT22;26604;53.596;10.042;2023-06-22T04:52:04;19.50;99.90
15638;DHT22;26604;53.596;10.042;2023-06-22T04:54:33;19.60;99.90
15638;DHT22;26604;53.596;10.042;2023-06-22T04:57:00;19.80;99.90
15638;DHT22;26604;53.596;10.042;2023-06-22T04:59:28;20.00;99.90
15638;DHT22;26604;53.596;10.042;2023-06-22T05:01:55;20.30;99.90
15638;DHT22;26604;53.596;10.042;2023-06-22T05:04:22;20.60;99.90
15638;DHT22;26604;53.596;10.042;2023-06-22T05:06:50;20.90;99.90
15638;DHT22;26604;53.596;10.042;2023-06-22T05:09:17;21.10;99.90
15638;DHT22;26604;53.596;10.042;2023-06-22T05:11:45;21.30;99.90
15638;DHT22;26604;53.596;10.042;2023-06-22T05:14:12;21.40;99.90
15638;DHT22;26604;53.596;10.042;2023-06-22T05:16:41;21.70;99.90
15638;DHT22;26604;53.596;10.042;2023-06-22T05:19:08;21.80;99.90
15638;DHT22;26604;53.596;10.042;2023-06-22T05:21:36;21.90;99.90
15638;DHT22;26604;53.596;10.042;2023-06-22T05:24:03;21.90;99.90
15638;DHT22;26604;53.596;10.042;2023-06-22T05:26:31;22.00;99.90
15638;DHT22;26604;53.596;10.042;2023-06-22T05:29:01;22.00;99.90
15638;DHT22;26604;53.596;10.042;2023-06-22T05:31:28;21.90;99.90
15638;DHT22;26604;53.596;10.042;2023-06-22T05:33:56;21.90;99.90
15638;DHT22;26604;53.596;10.042;2023-06-22T05:36:23;22.00;99.90
15638;DHT22;26604;53.596;10.042;2023-06-22T05:38:51;22.10;99.90
15638;DHT22;26604;53.596;10.042;2023-06-22T05:41:18;22.10;99.90
15638;DHT22;26604;53.596;10.042;2023-06-22T05:43:45;22.20;99.90
15638;DHT22;26604;53.596;10.042;2023-06-22T05:46:14;22.20;99.90
15638;DHT22;26604;53.596;10.042;2023-06-22T05:48:41;22.30;99.90
15638;DHT22;26604;53.596;10.042;2023-06-22T05:51:07;22.30;99.90
15638;DHT22;26604;53.596;10.042;2023-06-22T05:53:34;22.20;99.90
15638;DHT22;26604;53.596;10.042;2023-06-22T05:56:01;22.30;99.90
15638;DHT22;26604;53.596;10.042;2023-06-22T05:58:28;22.40;99.90
15638;DHT22;26604;53.596;10.042;2023-06-22T06:00:55;22.50;99.90
15638;DHT22;26604;53.596;10.042;2023-06-22T06:03:23;22.60;99.90
15638;DHT22;26604;53.596;10.042;2023-06-22T06:05:50;22.70;99.90
15638;DHT22;26604;53.596;10.042;2023-06-22T06:08:17;22.80;99.90
15638;DHT22;26604;53.596;10.042;2023-06-22T06:10:44;22.90;99.90
15638;DHT22;26604;53.596;10.042;2023-06-22T06:13:11;23.00;99.90
15638;DHT22;26604;53.596;10.042;2023-06-22T06:15:37;23.10;99.90
15638;DHT22;26604;53.596;10.042;2023-06-22T06:18:05;23.20;99.90
15638;DHT22;26604;53.596;10.042;2023-06-22T06:20:33;23.30;99.90
15638;DHT22;26604;53.596;10.042;2023-06-22T06:23:01;23.50;99.90
15638;DHT22;26604;53.596;10.042;2023-06-22T06:25:28;23.50;99.90
15638;DHT22;26604;53.596;10.042;2023-06-22T06:27:55;23.60;99.90
15638;DHT22;26604;53.596;10.042;2023-06-22T06:30:22;23.80;99.90
15638;DHT22;26604;53.596;10.042;2023-06-22T06:32:49;24.00;99.90
15638;DHT22;26604;53.596;10.042;2023-06-22T06:35:17;24.10;99.90
15638;DHT22;26604;53.596;10.042;2023-06-22T06:37:47;24.30;99.90
15638;DHT22;26604;53.596;10.042;2023-06-22T06:40:16;24.30;99.90
15638;DHT22;26604;53.596;10.042;2023-06-22T06:42:44;24.20;99.90
15638;DHT22;26604;53.596;10.042;2023-06-22T06:45:11;24.10;99.90
15638;DHT22;26604;53.596;10.042;2023-06-22T06:47:39;24.00;99.90
15638;DHT22;26604;53.596;10.042;2023-06-22T06:50:07;23.80;99.90
15638;DHT22;26604;53.596;10.042;2023-06-22T06:52:34;23.70;99.90
15638;DHT22;26604;53.596;10.042;2023-06-22T06:55:03;23.60;99.90
15638;DHT22;26604;53.596;10.042;2023-06-22T06:57:34;23.50;99.90
15638;DHT22;26604;53.596;10.042;2023-06-22T07:00:03;23.40;99.90
15638;DHT22;26604;53.596;10.042;2023-06-22T07:02:35;23.30;99.90
15638;DHT22;26604;53.596;10.042;2023-06-22T07:05:02;23.20;99.90
15638;DHT22;26604;53.596;10.042;2023-06-22T07:07:30;23.20;99.90
15638;DHT22;26604;53.596;10.042;2023-06-22T07:09:56;23.10;99.90
15638;DHT22;26604;53.596;10.042;2023-06-22T07:12:25;23.10;99.90
15638;DHT22;26604;53.596;10.042;2023-06-22T07:14:52;23.20;99.90
15638;DHT22;26604;53.596;10.042;2023-06-22T07:17:19;23.30;99.90
15638;DHT22;26604;53.596;10.042;2023-06-22T07:19:46;23.40;99.90
15638;DHT22;26604;53.596;10.042;2023-06-22T07:22:12;23.50;99.90
15638;DHT22;26604;53.596;10.042;2023-06-22T07:24:39;23.80;99.90
15638;DHT22;26604;53.596;10.042;2023-06-22T07:27:06;24.10;99.90
15638;DHT22;26604;53.596;10.042;2023-06-22T07:29:38;24.30;99.90
15638;DHT22;26604;53.596;10.042;2023-06-22T07:32:06;24.60;99.90
15638;DHT22;26604;53.596;10.042;2023-06-22T07:34:34;24.80;99.90
15638;DHT22;26604;53.596;10.042;2023-06-22T07:37:01;25.00;99.90
15638;DHT22;26604;53.596;10.042;2023-06-22T07:39:28;25.20;99.90
15638;DHT22;26604;53.596;10.042;2023-06-22T07:41:57;25.40;99.90
15638;DHT22;26604;53.596;10.042;2023-06-22T07:44:24;25.60;99.90
15638;DHT22;26604;53.596;10.042;2023-06-22T07:46:52;25.80;99.90
15638;DHT22;26604;53.596;10.042;2023-06-22T07:49:19;26.00;99.70
15638;DHT22;26604;53.596;10.042;2023-06-22T07:51:46;26.30;98.80
15638;DHT22;26604;53.596;10.042;2023-06-22T07:54:13;26.60;95.30
15638;DHT22;26604;53.596;10.042;2023-06-22T07:56:41;26.70;93.60
15638;DHT22;26604;53.596;10.042;2023-06-22T07:59:08;26.70;93.50
15638;DHT22;26604;53.596;10.042;2023-06-22T08:01:35;26.80;92.80
15638;DHT22;26604;53.596;10.042;2023-06-22T08:04:05;26.80;93.60
15638;DHT22;26604;53.596;10.042;2023-06-22T08:06:33;27.10;92.70
15638;DHT22;26604;53.596;10.042;2023-06-22T08:08:59;27.20;91.50
15638;DHT22;26604;53.596;10.042;2023-06-22T08:11:26;27.10;91.10
15638;DHT22;26604;53.596;10.042;2023-06-22T08:13:53;27.10;91.40
15638;DHT22;26604;53.596;10.042;2023-06-22T08:16:23;27.20;91.50
15638;DHT22;26604;53.596;10.042;2023-06-22T08:18:50;27.20;87.10
15638;DHT22;26604;53.596;10.042;2023-06-22T08:21:19;27.10;85.30
15638;DHT22;26604;53.596;10.042;2023-06-22T08:23:46;26.80;89.10
15638;DHT22;26604;53.596;10.042;2023-06-22T08:26:14;26.80;90.20
15638;DHT22;26604;53.596;10.042;2023-06-22T08:28:41;26.80;91.40
15638;DHT22;26604;53.596;10.042;2023-06-22T08:31:08;26.80;88.80
15638;DHT22;26604;53.596;10.042;2023-06-22T08:33:39;26.80;90.00
15638;DHT22;26604;53.596;10.042;2023-06-22T08:36:06;26.80;90.00
15638;DHT22;26604;53.596;10.042;2023-06-22T08:38:35;26.70;91.20
15638;DHT22;26604;53.596;10.042;2023-06-22T08:41:02;26.60;92.30
15638;DHT22;26604;53.596;10.042;2023-06-22T08:43:29;26.50;91.90
15638;DHT22;26604;53.596;10.042;2023-06-22T08:45:55;26.40;92.40
15638;DHT22;26604;53.596;10.042;2023-06-22T08:48:22;26.20;94.30
15638;DHT22;26604;53.596;10.042;2023-06-22T08:50:49;26.10;93.60
15638;DHT22;26604;53.596;10.042;2023-06-22T08:53:16;26.10;91.10
15638;DHT22;26604;53.596;10.042;2023-06-22T08:55:44;26.00;93.10
15638;DHT22;26604;53.596;10.042;2023-06-22T08:58:11;26.00;92.90
15638;DHT22;26604;53.596;10.042;2023-06-22T09:00:38;25.90;91.20
15638;DHT22;26604;53.596;10.042;2023-06-22T09:03:05;25.90;92.60
15638;DHT22;26604;53.596;10.042;2023-06-22T09:05:32;25.90;92.50
15638;DHT22;26604;53.596;10.042;2023-06-22T09:07:59;25.90;92.50
15638;DHT22;26604;53.596;10.042;2023-06-22T09:10:26;25.90;91.50
15638;DHT22;26604;53.596;10.042;2023-06-22T09:12:54;25.90;91.30
15638;DHT22;26604;53.596;10.042;2023-06-22T09:15:21;25.90;90.60
15638;DHT22;26604;53.596;10.042;2023-06-22T09:17:48;25.90;91.00
15638;DHT22;26604;53.596;10.042;2023-06-22T09:20:15;25.90;93.50
15638;DHT22;26604;53.596;10.042;2023-06-22T09:22:42;25.90;94.30
15638;DHT22;26604;53.596;10.042;2023-06-22T09:25:09;26.00;95.30
15638;DHT22;26604;53.596;10.042;2023-06-22T09:27:36;25.90;94.10
15638;DHT22;26604;53.596;10.042;2023-06-22T09:30:06;25.90;96.50
15638;DHT22;26604;53.596;10.042;2023-06-22T09:32:33;26.00;96.50
15638;DHT22;26604;53.596;10.042;2023-06-22T09:35:04;26.00;93.60
15638;DHT22;26604;53.596;10.042;2023-06-22T09:37:32;26.00;94.90
15638;DHT22;26604;53.596;10.042;2023-06-22T09:39:59;26.00;95.70
15638;DHT22;26604;53.596;10.042;2023-06-22T09:42:26;26.10;95.60
15638;DHT22;26604;53.596;10.042;2023-06-22T09:44:53;26.20;94.70
15638;DHT22;26604;53.596;10.042;2023-06-22T09:47:21;26.20;94.00
15638;DHT22;26604;53.596;10.042;2023-06-22T09:49:48;26.20;95.00
15638;DHT22;26604;53.596;10.042;2023-06-22T09:52:15;26.30;93.50
15638;DHT22;26604;53.596;10.042;2023-06-22T09:54:42;26.40;93.80
15638;DHT22;26604;53.596;10.042;2023-06-22T09:57:09;26.30;93.80
15638;DHT22;26604;53.596;10.042;2023-06-22T09:59:37;26.40;96.10
15638;DHT22;26604;53.596;10.042;2023-06-22T10:02:06;26.60;95.60
15638;DHT22;26604;53.596;10.042;2023-06-22T10:04:35;26.90;92.30
15638;DHT22;26604;53.596;10.042;2023-06-22T10:07:02;27.10;89.90
15638;DHT22;26604;53.596;10.042;2023-06-22T10:09:29;27.30;90.70
15638;DHT22;26604;53.596;10.042;2023-06-22T10:11:56;27.40;89.80
15638;DHT22;26604;53.596;10.042;2023-06-22T10:14:23;27.60;88.10
15638;DHT22;26604;53.596;10.042;2023-06-22T10:16:51;27.70;86.70
15638;DHT22;26604;53.596;10.042;2023-06-22T10:19:19;27.80;84.10
15638;DHT22;26604;53.596;10.042;2023-06-22T10:21:47;27.70;83.50
15638;DHT22;26604;53.596;10.042;2023-06-22T10:24:14;27.50;82.70
15638;DHT22;26604;53.596;10.042;2023-06-22T10:26:40;27.40;84.90
15638;DHT22;26604;53.596;10.042;2023-06-22T10:29:07;27.40;85.80
15638;DHT22;26604;53.596;10.042;2023-06-22T10:31:34;27.40;86.20
15638;DHT22;26604;53.596;10.042;2023-06-22T10:34:01;27.40;86.90
15638;DHT22;26604;53.596;10.042;2023-06-22T10:36:28;27.40;87.70
15638;DHT22;26604;53.596;10.042;2023-06-22T10:38:56;27.50;88.50
15638;DHT22;26604;53.596;10.042;2023-06-22T10:41:24;27.60;88.70
15638;DHT22;26604;53.596;10.042;2023-06-22T10:43:51;27.60;86.10
15638;DHT22;26604;53.596;10.042;2023-06-22T10:46:18;27.60;86.20
15638;DHT22;26604;53.596;10.042;2023-06-22T10:48:45;27.60;86.40
15638;DHT22;26604;53.596;10.042;2023-06-22T10:51:12;27.50;88.30
15638;DHT22;26604;53.596;10.042;2023-06-22T10:53:39;27.40;86.10
15638;DHT22;26604;53.596;10.042;2023-06-22T10:56:07;27.40;87.80
15638;DHT22;26604;53.596;10.042;2023-06-22T10:58:34;27.30;87.90
15638;DHT22;26604;53.596;10.042;2023-06-22T11:01:01;27.20;88.60
15638;DHT22;26604;53.596;10.042;2023-06-22T11:03:28;27.10;90.80
15638;DHT22;26604;53.596;10.042;2023-06-22T11:05:55;27.10;92.90
15638;DHT22;26604;53.596;10.042;2023-06-22T11:08:22;27.10;93.80
15638;DHT22;26604;53.596;10.042;2023-06-22T11:10:51;27.40;92.00
15638;DHT22;26604;53.596;10.042;2023-06-22T11:13:19;27.50;91.20
15638;DHT22;26604;53.596;10.042;2023-06-22T11:15:46;27.70;88.40
15638;DHT22;26604;53.596;10.042;2023-06-22T11:18:13;27.80;84.70
15638;DHT22;26604;53.596;10.042;2023-06-22T11:20:40;27.90;84.20
15638;DHT22;26604;53.596;10.042;2023-06-22T11:23:07;28.00;84.70
15638;DHT22;26604;53.596;10.042;2023-06-22T11:25:34;28.00;85.50
15638;DHT22;26604;53.596;10.042;2023-06-22T11:28:02;28.00;85.60
15638;DHT22;26604;53.596;10.042;2023-06-22T11:30:30;28.10;85.80
15638;DHT22;26604;53.596;10.042;2023-06-22T11:32:58;28.30;84.90
15638;DHT22;26604;53.596;10.042;2023-06-22T11:35:25;28.40;83.40
15638;DHT22;26604;53.596;10.042;2023-06-22T11:37:52;28.50;81.80
15638;DHT22;26604;53.596;10.042;2023-06-22T11:40:19;28.60;81.20
15638;DHT22;26604;53.596;10.042;2023-06-22T11:42:46;28.90;80.40
15638;DHT22;26604;53.596;10.042;2023-06-22T11:45:13;29.10;77.80
15638;DHT22;26604;53.596;10.042;2023-06-22T11:47:41;29.30;73.80
15638;DHT22;26604;53.596;10.042;2023-06-22T11:50:09;29.60;72.50
15638;DHT22;26604;53.596;10.042;2023-06-22T11:52:36;29.80;69.10
15638;DHT22;26604;53.596;10.042;2023-06-22T11:55:03;30.00;70.20
15638;DHT22;26604;53.596;10.042;2023-06-22T11:57:33;30.20;66.20
15638;DHT22;26604;53.596;10.042;2023-06-22T12:00:00;30.10;66.90
15638;DHT22;26604;53.596;10.042;2023-06-22T12:02:27;30.30;66.90
15638;DHT22;26604;53.596;10.042;2023-06-22T12:04:55;30.30;64.80
15638;DHT22;26604;53.596;10.042;2023-06-22T12:07:23;30.40;64.10
15638;DHT22;26604;53.596;10.042;2023-06-22T12:09:50;30.40;63.80
15638;DHT22;26604;53.596;10.042;2023-06-22T12:12:17;30.40;64.40
15638;DHT22;26604;53.596;10.042;2023-06-22T12:14:44;30.40;63.70
15638;DHT22;26604;53.596;10.042;2023-06-22T12:17:11;30.20;63.10
15638;DHT22;26604;53.596;10.042;2023-06-22T12:19:37;30.10;64.20
15638;DHT22;26604;53.596;10.042;2023-06-22T12:22:06;29.80;65.30
15638;DHT22;26604;53.596;10.042;2023-06-22T12:24:32;29.70;66.90
15638;DHT22;26604;53.596;10.042;2023-06-22T12:26:59;29.70;67.00
15638;DHT22;26604;53.596;10.042;2023-06-22T12:29:28;29.60;66.70
15638;DHT22;26604;53.596;10.042;2023-06-22T12:31:55;29.60;66.80
15638;DHT22;26604;53.596;10.042;2023-06-22T12:34:22;29.60;68.60
15638;DHT22;26604;53.596;10.042;2023-06-22T12:36:49;29.60;71.00
15638;DHT22;26604;53.596;10.042;2023-06-22T12:39:17;29.70;71.70
15638;DHT22;26604;53.596;10.042;2023-06-22T12:41:44;29.80;71.50
15638;DHT22;26604;53.596;10.042;2023-06-22T12:44:11;29.80;69.70
15638;DHT22;26604;53.596;10.042;2023-06-22T12:46:38;29.70;70.20
15638;DHT22;26604;53.596;10.042;2023-06-22T12:49:05;29.70;72.50
15638;DHT22;26604;53.596;10.042;2023-06-22T12:51:32;29.70;70.10
15638;DHT22;26604;53.596;10.042;2023-06-22T12:53:59;29.60;71.60
15638;DHT22;26604;53.596;10.042;2023-06-22T12:56:27;29.80;69.10
15638;DHT22;26604;53.596;10.042;2023-06-22T12:58:54;29.80;69.80
15638;DHT22;26604;53.596;10.042;2023-06-22T13:01:21;29.80;67.50
15638;DHT22;26604;53.596;10.042;2023-06-22T13:03:48;29.90;70.70
15638;DHT22;26604;53.596;10.042;2023-06-22T13:06:15;29.90;69.60
15638;DHT22;26604;53.596;10.042;2023-06-22T13:08:42;29.80;70.00
15638;DHT22;26604;53.596;10.042;2023-06-22T13:11:09;30.00;69.00
15638;DHT22;26604;53.596;10.042;2023-06-22T13:13:37;30.10;67.30
15638;DHT22;26604;53.596;10.042;2023-06-22T13:16:04;30.20;66.50
15638;DHT22;26604;53.596;10.042;2023-06-22T13:18:31;30.10;65.40
15638;DHT22;26604;53.596;10.042;2023-06-22T13:20:59;30.10;65.30
15638;DHT22;26604;53.596;10.042;2023-06-22T13:23:26;29.80;68.30
15638;DHT22;26604;53.596;10.042;2023-06-22T13:25:53;29.70;70.50
15638;DHT22;26604;53.596;10.042;2023-06-22T13:28:20;29.70;70.60
15638;DHT22;26604;53.596;10.042;2023-06-22T13:30:48;29.70;71.20
15638;DHT22;26604;53.596;10.042;2023-06-22T13:33:16;29.60;71.20
15638;DHT22;26604;53.596;10.042;2023-06-22T13:35:43;29.50;72.50
15638;DHT22;26604;53.596;10.042;2023-06-22T13:38:10;29.50;72.80
15638;DHT22;26604;53.596;10.042;2023-06-22T13:40:37;29.40;74.20
15638;DHT22;26604;53.596;10.042;2023-06-22T13:43:04;29.30;73.30
15638;DHT22;26604;53.596;10.042;2023-06-22T13:45:34;29.20;76.00
15638;DHT22;26604;53.596;10.042;2023-06-22T13:48:02;29.30;74.80
15638;DHT22;26604;53.596;10.042;2023-06-22T13:50:29;29.30;74.70
15638;DHT22;26604;53.596;10.042;2023-06-22T13:52:56;29.30;73.10
15638;DHT22;26604;53.596;10.042;2023-06-22T13:55:23;29.40;73.80
15638;DHT22;26604;53.596;10.042;2023-06-22T13:57:50;29.50;73.40
15638;DHT22;26604;53.596;10.042;2023-06-22T14:00:18;29.60;71.60
15638;DHT22;26604;53.596;10.042;2023-06-22T14:02:44;29.70;71.50
15638;DHT22;26604;53.596;10.042;2023-06-22T14:05:13;29.80;72.00
15638;DHT22;26604;53.596;10.042;2023-06-22T14:07:40;30.00;69.40
15638;DHT22;26604;53.596;10.042;2023-06-22T14:10:07;30.30;68.50
15638;DHT22;26604;53.596;10.042;2023-06-22T14:12:34;30.50;65.90
15638;DHT22;26604;53.596;10.042;2023-06-22T14:15:01;30.60;64.60
15638;DHT22;26604;53.596;10.042;2023-06-22T14:17:28;30.50;62.70
15638;DHT22;26604;53.596;10.042;2023-06-22T14:19:54;30.50;63.90
15638;DHT22;26604;53.596;10.042;2023-06-22T14:22:23;30.30;64.70
15638;DHT22;26604;53.596;10.042;2023-06-22T14:24:50;30.10;67.00
15638;DHT22;26604;53.596;10.042;2023-06-22T14:27:17;30.00;67.50
15638;DHT22;26604;53.596;10.042;2023-06-22T14:29:44;29.80;69.20
15638;DHT22;26604;53.596;10.042;2023-06-22T14:32:11;29.60;70.70
15638;DHT22;26604;53.596;10.042;2023-06-22T14:34:37;29.50;70.90
15638;DHT22;26604;53.596;10.042;2023-06-22T14:37:06;29.40;71.80
15638;DHT22;26604;53.596;10.042;2023-06-22T14:39:36;29.30;73.00
15638;DHT22;26604;53.596;10.042;2023-06-22T14:42:03;29.10;74.90
15638;DHT22;26604;53.596;10.042;2023-06-22T14:44:30;28.90;76.30
15638;DHT22;26604;53.596;10.042;2023-06-22T14:46:57;28.70;79.80
15638;DHT22;26604;53.596;10.042;2023-06-22T14:49:27;28.60;84.20
15638;DHT22;26604;53.596;10.042;2023-06-22T14:51:54;28.40;87.60
15638;DHT22;26604;53.596;10.042;2023-06-22T14:54:21;28.30;90.10
15638;DHT22;26604;53.596;10.042;2023-06-22T14:56:50;28.20;90.90
15638;DHT22;26604;53.596;10.042;2023-06-22T14:59:17;28.10;92.20
15638;DHT22;26604;53.596;10.042;2023-06-22T15:01:44;28.00;92.90
15638;DHT22;26604;53.596;10.042;2023-06-22T15:04:10;27.90;92.60
15638;DHT22;26604;53.596;10.042;2023-06-22T15:06:37;27.90;92.60
15638;DHT22;26604;53.596;10.042;2023-06-22T15:09:05;27.90;93.50
15638;DHT22;26604;53.596;10.042;2023-06-22T15:11:32;27.80;94.40
15638;DHT22;26604;53.596;10.042;2023-06-22T15:14:00;27.80;93.10
15638;DHT22;26604;53.596;10.042;2023-06-22T15:16:27;27.80;93.80
15638;DHT22;26604;53.596;10.042;2023-06-22T15:18:54;27.70;93.90